sensor_id;sensor_type;location;lat;lon;timestamp;P1;durP1;ratioP1;P2;durP2;ratioP2
34481;SDS011;20720;48.886;9.388;2022-12-10T00:00:52;35.35;;;18.55;;
34481;SDS011;20720;48.886;9.388;2022-12-10T00:03:18;34.88;;;16.85;;
34481;SDS011;20720;48.886;9.388;2022-12-10T00:05:43;32.60;;;17.38;;
34481;SDS011;20720;48.886;9.388;2022-12-10T00:08:08;37.90;;;19.33;;
34481;SDS011;20720;48.886;9.388;2022-12-10T00:10:33;33.25;;;18.13;;
34481;SDS011;20720;48.886;9.388;2022-12-10T00:12:59;34.85;;;19.63;;
34481;SDS011;20720;48.886;9.388;2022-12-10T00:15:24;34.75;;;17.27;;
34481;SDS011;20720;48.886;9.388;2022-12-10T00:17:49;32.30;;;16.70;;
34481;SDS011;20720;48.886;9.388;2022-12-10T00:20:14;29.15;;;16.55;;
34481;SDS011;20720;48.886;9.388;2022-12-10T00:22:40;32.13;;;17.02;;
34481;SDS011;20720;48.886;9.388;2022-12-10T00:25:05;31.85;;;16.92;;
34481;SDS011;20720;48.886;9.388;2022-12-10T00:27:31;33.50;;;17.88;;
34481;SDS011;20720;48.886;9.388;2022-12-10T00:29:56;33.03;;;18.13;;
34481;SDS011;20720;48.886;9.388;2022-12-10T00:32:21;31.45;;;17.38;;
34481;SDS011;20720;48.886;9.388;2022-12-10T00:34:46;31.55;;;17.13;;
34481;SDS011;20720;48.886;9.388;2022-12-10T00:37:12;35.05;;;18.33;;
34481;SDS011;20720;48.886;9.388;2022-12-10T00:39:37;33.10;;;18.05;;
34481;SDS011;20720;48.886;9.388;2022-12-10T00:42:02;33.20;;;17.52;;
34481;SDS011;20720;48.886;9.388;2022-12-10T00:44:28;30.98;;;17.23;;
34481;SDS011;20720;48.886;9.388;2022-12-10T00:46:53;32.03;;;17.38;;
34481;SDS011;20720;48.886;9.388;2022-12-10T00:49:18;28.95;;;15.82;;
34481;SDS011;20720;48.886;9.388;2022-12-10T00:51:43;31.02;;;17.38;;
34481;SDS011;20720;48.886;9.388;2022-12-10T00:54:09;33.88;;;16.92;;
34481;SDS011;20720;48.886;9.388;2022-12-10T00:56:36;30.38;;;17.00;;
34481;SDS011;20720;48.886;9.388;2022-12-10T00:59:01;34.15;;;18.15;;
34481;SDS011;20720;48.886;9.388;2022-12-10T01:01:28;31.05;;;16.92;;
34481;SDS011;20720;48.886;9.388;2022-12-10T01:03:57;34.08;;;17.75;;
34481;SDS011;20720;48.886;9.388;2022-12-10T01:06:28;33.33;;;18.55;;
34481;SDS011;20720;48.886;9.388;2022-12-10T01:08:57;36.50;;;17.80;;
34481;SDS011;20720;48.886;9.388;2022-12-10T01:11:26;36.67;;;18.33;;
34481;SDS011;20720;48.886;9.388;2022-12-10T01:13:54;31.80;;;17.58;;
34481;SDS011;20720;48.886;9.388;2022-12-10T01:16:20;32.97;;;17.83;;
34481;SDS011;20720;48.886;9.388;2022-12-10T01:18:46;34.13;;;18.15;;
34481;SDS011;20720;48.886;9.388;2022-12-10T01:21:13;32.42;;;18.00;;
34481;SDS011;20720;48.886;9.388;2022-12-10T01:23:41;36.45;;;18.38;;
34481;SDS011;20720;48.886;9.388;2022-12-10T01:26:10;36.28;;;18.75;;
34481;SDS011;20720;48.886;9.388;2022-12-10T01:28:37;33.78;;;18.02;;
34481;SDS011;20720;48.886;9.388;2022-12-10T01:31:47;32.95;;;17.75;;
34481;SDS011;20720;48.886;9.388;2022-12-10T01:33:55;35.97;;;18.70;;
34481;SDS011;20720;48.886;9.388;2022-12-10T01:36:26;31.35;;;17.00;;
34481;SDS011;20720;48.886;9.388;2022-12-10T01:39:02;31.48;;;16.75;;
34481;SDS011;20720;48.886;9.388;2022-12-10T01:41:33;33.05;;;17.35;;
34481;SDS011;20720;48.886;9.388;2022-12-10T01:46:38;27.33;;;15.68;;
34481;SDS011;20720;48.886;9.388;2022-12-10T01:49:09;32.08;;;17.27;;
34481;SDS011;20720;48.886;9.388;2022-12-10T01:51:38;29.60;;;16.70;;
34481;SDS011;20720;48.886;9.388;2022-12-10T01:54:07;35.60;;;16.83;;
34481;SDS011;20720;48.886;9.388;2022-12-10T01:56:36;29.40;;;16.65;;
34481;SDS011;20720;48.886;9.388;2022-12-10T01:59:05;30.92;;;17.10;;
34481;SDS011;20720;48.886;9.388;2022-12-10T02:07:06;30.65;;;17.95;;
34481;SDS011;20720;48.886;9.388;2022-12-10T02:15:06;28.02;;;15.13;;
34481;SDS011;20720;48.886;9.388;2022-12-10T02:17:53;28.65;;;16.48;;
34481;SDS011;20720;48.886;9.388;2022-12-10T02:23:42;33.97;;;16.80;;
34481;SDS011;20720;48.886;9.388;2022-12-10T02:26:14;30.35;;;16.30;;
34481;SDS011;20720;48.886;9.388;2022-12-10T02:31:31;32.63;;;17.20;;
34481;SDS011;20720;48.886;9.388;2022-12-10T02:33:59;26.85;;;14.95;;
34481;SDS011;20720;48.886;9.388;2022-12-10T02:36:28;29.73;;;15.70;;
34481;SDS011;20720;48.886;9.388;2022-12-10T02:38:58;31.38;;;17.67;;
34481;SDS011;20720;48.886;9.388;2022-12-10T02:41:28;30.73;;;15.98;;
34481;SDS011;20720;48.886;9.388;2022-12-10T02:43:59;31.42;;;16.90;;
34481;SDS011;20720;48.886;9.388;2022-12-10T02:46:28;31.02;;;17.10;;
34481;SDS011;20720;48.886;9.388;2022-12-10T02:48:56;31.65;;;17.35;;
34481;SDS011;20720;48.886;9.388;2022-12-10T02:51:23;31.00;;;16.73;;
34481;SDS011;20720;48.886;9.388;2022-12-10T02:53:57;27.92;;;15.45;;
34481;SDS011;20720;48.886;9.388;2022-12-10T02:56:29;32.42;;;15.20;;
34481;SDS011;20720;48.886;9.388;2022-12-10T03:02:16;34.05;;;16.92;;
34481;SDS011;20720;48.886;9.388;2022-12-10T03:07:52;32.35;;;16.80;;
34481;SDS011;20720;48.886;9.388;2022-12-10T03:13:00;30.00;;;16.65;;
34481;SDS011;20720;48.886;9.388;2022-12-10T03:15:31;29.23;;;17.23;;
34481;SDS011;20720;48.886;9.388;2022-12-10T03:18:01;32.17;;;16.55;;
34481;SDS011;20720;48.886;9.388;2022-12-10T03:20:28;29.92;;;16.63;;
34481;SDS011;20720;48.886;9.388;2022-12-10T03:22:57;31.15;;;17.20;;
34481;SDS011;20720;48.886;9.388;2022-12-10T03:25:23;37.97;;;19.17;;
34481;SDS011;20720;48.886;9.388;2022-12-10T03:27:50;35.17;;;18.92;;
34481;SDS011;20720;48.886;9.388;2022-12-10T03:30:18;34.70;;;19.00;;
34481;SDS011;20720;48.886;9.388;2022-12-10T03:32:44;32.97;;;18.08;;
34481;SDS011;20720;48.886;9.388;2022-12-10T03:35:10;36.35;;;19.63;;
34481;SDS011;20720;48.886;9.388;2022-12-10T03:37:37;34.35;;;17.48;;
34481;SDS011;20720;48.886;9.388;2022-12-10T03:40:04;33.75;;;17.65;;
34481;SDS011;20720;48.886;9.388;2022-12-10T03:42:31;32.25;;;16.77;;
34481;SDS011;20720;48.886;9.388;2022-12-10T03:44:56;33.67;;;16.60;;
34481;SDS011;20720;48.886;9.388;2022-12-10T03:47:22;31.40;;;16.70;;
34481;SDS011;20720;48.886;9.388;2022-12-10T03:49:48;31.63;;;17.77;;
34481;SDS011;20720;48.886;9.388;2022-12-10T03:52:13;32.67;;;17.63;;
34481;SDS011;20720;48.886;9.388;2022-12-10T03:54:39;35.53;;;17.77;;
34481;SDS011;20720;48.886;9.388;2022-12-10T03:57:04;31.33;;;17.20;;
34481;SDS011;20720;48.886;9.388;2022-12-10T03:59:29;32.58;;;17.27;;
34481;SDS011;20720;48.886;9.388;2022-12-10T04:01:55;34.05;;;18.13;;
34481;SDS011;20720;48.886;9.388;2022-12-10T04:04:20;31.17;;;17.55;;
34481;SDS011;20720;48.886;9.388;2022-12-10T04:06:45;31.00;;;17.27;;
34481;SDS011;20720;48.886;9.388;2022-12-10T04:09:11;33.22;;;18.73;;
34481;SDS011;20720;48.886;9.388;2022-12-10T04:11:38;34.97;;;19.58;;
34481;SDS011;20720;48.886;9.388;2022-12-10T04:14:04;35.03;;;18.50;;
34481;SDS011;20720;48.886;9.388;2022-12-10T04:16:47;31.83;;;16.98;;
34481;SDS011;20720;48.886;9.388;2022-12-10T04:19:14;34.00;;;17.48;;
34481;SDS011;20720;48.886;9.388;2022-12-10T04:21:41;32.47;;;17.63;;
34481;SDS011;20720;48.886;9.388;2022-12-10T04:24:28;30.73;;;17.33;;
34481;SDS011;20720;48.886;9.388;2022-12-10T04:27:19;33.08;;;18.25;;
34481;SDS011;20720;48.886;9.388;2022-12-10T04:29:47;31.02;;;17.02;;
34481;SDS011;20720;48.886;9.388;2022-12-10T04:32:13;32.95;;;18.05;;
34481;SDS011;20720;48.886;9.388;2022-12-10T04:34:39;31.80;;;16.40;;
34481;SDS011;20720;48.886;9.388;2022-12-10T04:37:05;33.13;;;17.05;;
34481;SDS011;20720;48.886;9.388;2022-12-10T04:39:30;31.50;;;16.67;;
34481;SDS011;20720;48.886;9.388;2022-12-10T04:41:56;31.60;;;16.77;;
34481;SDS011;20720;48.886;9.388;2022-12-10T04:44:22;34.33;;;17.33;;
34481;SDS011;20720;48.886;9.388;2022-12-10T04:46:48;31.02;;;17.10;;
34481;SDS011;20720;48.886;9.388;2022-12-10T04:49:13;33.88;;;17.88;;
34481;SDS011;20720;48.886;9.388;2022-12-10T04:51:39;32.03;;;16.83;;
34481;SDS011;20720;48.886;9.388;2022-12-10T04:54:05;32.65;;;18.00;;
34481;SDS011;20720;48.886;9.388;2022-12-10T04:56:31;30.33;;;17.70;;
34481;SDS011;20720;48.886;9.388;2022-12-10T04:58:57;33.53;;;18.58;;
34481;SDS011;20720;48.886;9.388;2022-12-10T05:01:24;33.05;;;17.73;;
34481;SDS011;20720;48.886;9.388;2022-12-10T05:03:49;34.00;;;18.27;;
34481;SDS011;20720;48.886;9.388;2022-12-10T05:06:16;38.03;;;19.35;;
34481;SDS011;20720;48.886;9.388;2022-12-10T05:08:42;32.35;;;18.33;;
34481;SDS011;20720;48.886;9.388;2022-12-10T05:11:09;35.28;;;18.00;;
34481;SDS011;20720;48.886;9.388;2022-12-10T05:13:37;34.70;;;19.27;;
34481;SDS011;20720;48.886;9.388;2022-12-10T05:16:03;38.00;;;19.02;;
34481;SDS011;20720;48.886;9.388;2022-12-10T05:18:30;31.80;;;17.65;;
34481;SDS011;20720;48.886;9.388;2022-12-10T05:20:58;32.72;;;17.98;;
34481;SDS011;20720;48.886;9.388;2022-12-10T05:23:24;33.25;;;17.80;;
34481;SDS011;20720;48.886;9.388;2022-12-10T05:28:42;36.40;;;19.00;;
34481;SDS011;20720;48.886;9.388;2022-12-10T05:31:12;37.95;;;19.55;;
34481;SDS011;20720;48.886;9.388;2022-12-10T05:33:39;33.17;;;17.95;;
34481;SDS011;20720;48.886;9.388;2022-12-10T05:36:05;33.80;;;18.63;;
34481;SDS011;20720;48.886;9.388;2022-12-10T05:38:31;33.40;;;17.75;;
34481;SDS011;20720;48.886;9.388;2022-12-10T05:41:05;33.28;;;18.75;;
34481;SDS011;20720;48.886;9.388;2022-12-10T05:43:33;34.92;;;18.98;;
34481;SDS011;20720;48.886;9.388;2022-12-10T05:46:01;33.15;;;18.80;;
34481;SDS011;20720;48.886;9.388;2022-12-10T05:48:29;37.47;;;19.90;;
34481;SDS011;20720;48.886;9.388;2022-12-10T05:50:55;40.20;;;21.17;;
34481;SDS011;20720;48.886;9.388;2022-12-10T05:53:21;41.63;;;21.85;;
34481;SDS011;20720;48.886;9.388;2022-12-10T05:55:46;40.38;;;22.02;;
34481;SDS011;20720;48.886;9.388;2022-12-10T05:58:11;34.85;;;19.55;;
34481;SDS011;20720;48.886;9.388;2022-12-10T06:00:38;36.95;;;20.23;;
34481;SDS011;20720;48.886;9.388;2022-12-10T06:03:05;37.92;;;20.88;;
34481;SDS011;20720;48.886;9.388;2022-12-10T06:05:38;35.00;;;19.40;;
34481;SDS011;20720;48.886;9.388;2022-12-10T06:08:05;35.08;;;19.50;;
34481;SDS011;20720;48.886;9.388;2022-12-10T06:10:33;35.05;;;18.65;;
34481;SDS011;20720;48.886;9.388;2022-12-10T06:13:00;34.40;;;19.60;;
34481;SDS011;20720;48.886;9.388;2022-12-10T06:15:25;35.90;;;18.60;;
34481;SDS011;20720;48.886;9.388;2022-12-10T06:17:50;34.92;;;18.80;;
34481;SDS011;20720;48.886;9.388;2022-12-10T06:20:16;33.97;;;18.65;;
34481;SDS011;20720;48.886;9.388;2022-12-10T06:22:41;39.65;;;19.38;;
34481;SDS011;20720;48.886;9.388;2022-12-10T06:25:06;37.03;;;19.27;;
34481;SDS011;20720;48.886;9.388;2022-12-10T06:27:32;36.03;;;19.50;;
34481;SDS011;20720;48.886;9.388;2022-12-10T06:29:57;34.60;;;19.95;;
34481;SDS011;20720;48.886;9.388;2022-12-10T06:32:23;33.88;;;18.90;;
34481;SDS011;20720;48.886;9.388;2022-12-10T06:34:49;35.97;;;18.85;;
34481;SDS011;20720;48.886;9.388;2022-12-10T06:37:14;38.47;;;19.65;;
34481;SDS011;20720;48.886;9.388;2022-12-10T06:39:39;32.72;;;18.65;;
34481;SDS011;20720;48.886;9.388;2022-12-10T06:42:05;35.40;;;18.50;;
34481;SDS011;20720;48.886;9.388;2022-12-10T06:44:30;33.40;;;18.55;;
34481;SDS011;20720;48.886;9.388;2022-12-10T06:46:56;35.35;;;18.50;;
34481;SDS011;20720;48.886;9.388;2022-12-10T06:49:21;33.85;;;19.02;;
34481;SDS011;20720;48.886;9.388;2022-12-10T06:51:47;33.38;;;18.23;;
34481;SDS011;20720;48.886;9.388;2022-12-10T06:54:12;33.28;;;17.50;;
34481;SDS011;20720;48.886;9.388;2022-12-10T06:56:38;33.20;;;18.75;;
34481;SDS011;20720;48.886;9.388;2022-12-10T06:59:04;34.60;;;18.98;;
34481;SDS011;20720;48.886;9.388;2022-12-10T07:01:31;37.42;;;19.95;;
34481;SDS011;20720;48.886;9.388;2022-12-10T07:03:57;30.23;;;18.23;;
34481;SDS011;20720;48.886;9.388;2022-12-10T07:06:22;36.67;;;19.30;;
34481;SDS011;20720;48.886;9.388;2022-12-10T07:08:49;35.25;;;18.63;;
34481;SDS011;20720;48.886;9.388;2022-12-10T07:11:17;35.17;;;18.05;;
34481;SDS011;20720;48.886;9.388;2022-12-10T07:13:44;32.97;;;18.35;;
34481;SDS011;20720;48.886;9.388;2022-12-10T07:18:39;33.25;;;17.85;;
34481;SDS011;20720;48.886;9.388;2022-12-10T07:23:49;33.20;;;19.27;;
34481;SDS011;20720;48.886;9.388;2022-12-10T07:26:16;34.35;;;18.35;;
34481;SDS011;20720;48.886;9.388;2022-12-10T07:28:41;39.63;;;19.48;;
34481;SDS011;20720;48.886;9.388;2022-12-10T07:31:08;32.75;;;18.75;;
34481;SDS011;20720;48.886;9.388;2022-12-10T07:33:34;38.65;;;19.58;;
34481;SDS011;20720;48.886;9.388;2022-12-10T07:36:03;36.47;;;19.17;;
34481;SDS011;20720;48.886;9.388;2022-12-10T07:38:29;36.72;;;19.02;;
34481;SDS011;20720;48.886;9.388;2022-12-10T07:40:54;35.00;;;18.88;;
34481;SDS011;20720;48.886;9.388;2022-12-10T07:43:19;34.20;;;18.80;;
34481;SDS011;20720;48.886;9.388;2022-12-10T07:45:45;38.22;;;19.90;;
34481;SDS011;20720;48.886;9.388;2022-12-10T07:48:10;36.90;;;19.02;;
34481;SDS011;20720;48.886;9.388;2022-12-10T07:50:35;34.00;;;18.60;;
34481;SDS011;20720;48.886;9.388;2022-12-10T07:53:01;34.22;;;19.23;;
34481;SDS011;20720;48.886;9.388;2022-12-10T07:55:27;34.80;;;18.13;;
34481;SDS011;20720;48.886;9.388;2022-12-10T07:57:52;36.20;;;17.85;;
34481;SDS011;20720;48.886;9.388;2022-12-10T08:00:18;36.15;;;18.42;;
34481;SDS011;20720;48.886;9.388;2022-12-10T08:02:43;34.47;;;18.35;;
34481;SDS011;20720;48.886;9.388;2022-12-10T08:05:08;30.17;;;17.42;;
34481;SDS011;20720;48.886;9.388;2022-12-10T08:07:34;34.88;;;19.23;;
34481;SDS011;20720;48.886;9.388;2022-12-10T08:09:59;32.75;;;18.40;;
34481;SDS011;20720;48.886;9.388;2022-12-10T08:12:24;36.17;;;18.08;;
34481;SDS011;20720;48.886;9.388;2022-12-10T08:14:50;37.00;;;19.70;;
34481;SDS011;20720;48.886;9.388;2022-12-10T08:17:15;33.78;;;18.83;;
34481;SDS011;20720;48.886;9.388;2022-12-10T08:19:40;31.95;;;17.75;;
34481;SDS011;20720;48.886;9.388;2022-12-10T08:22:06;31.08;;;17.70;;
34481;SDS011;20720;48.886;9.388;2022-12-10T08:24:32;32.78;;;18.73;;
34481;SDS011;20720;48.886;9.388;2022-12-10T08:26:57;33.88;;;18.52;;
34481;SDS011;20720;48.886;9.388;2022-12-10T08:29:23;30.92;;;17.05;;
34481;SDS011;20720;48.886;9.388;2022-12-10T08:31:48;34.25;;;17.98;;
34481;SDS011;20720;48.886;9.388;2022-12-10T08:34:14;31.23;;;17.23;;
34481;SDS011;20720;48.886;9.388;2022-12-10T08:36:41;33.28;;;17.10;;
34481;SDS011;20720;48.886;9.388;2022-12-10T08:39:07;36.05;;;19.75;;
34481;SDS011;20720;48.886;9.388;2022-12-10T08:41:35;30.58;;;17.92;;
34481;SDS011;20720;48.886;9.388;2022-12-10T08:44:01;29.60;;;17.10;;
34481;SDS011;20720;48.886;9.388;2022-12-10T08:46:26;32.70;;;17.60;;
34481;SDS011;20720;48.886;9.388;2022-12-10T08:48:53;35.33;;;18.70;;
34481;SDS011;20720;48.886;9.388;2022-12-10T08:51:18;32.67;;;18.23;;
34481;SDS011;20720;48.886;9.388;2022-12-10T08:53:45;32.83;;;18.02;;
34481;SDS011;20720;48.886;9.388;2022-12-10T08:56:11;31.63;;;17.48;;
34481;SDS011;20720;48.886;9.388;2022-12-10T08:58:37;29.23;;;16.10;;
34481;SDS011;20720;48.886;9.388;2022-12-10T09:01:09;35.92;;;19.67;;
34481;SDS011;20720;48.886;9.388;2022-12-10T09:03:37;35.55;;;18.75;;
34481;SDS011;20720;48.886;9.388;2022-12-10T09:06:07;41.83;;;22.88;;
34481;SDS011;20720;48.886;9.388;2022-12-10T09:08:34;46.20;;;24.10;;
34481;SDS011;20720;48.886;9.388;2022-12-10T09:11:06;47.33;;;24.73;;
34481;SDS011;20720;48.886;9.388;2022-12-10T09:13:37;45.55;;;23.83;;
34481;SDS011;20720;48.886;9.388;2022-12-10T09:16:02;42.72;;;23.88;;
34481;SDS011;20720;48.886;9.388;2022-12-10T09:18:28;38.47;;;21.15;;
34481;SDS011;20720;48.886;9.388;2022-12-10T09:20:54;35.65;;;19.77;;
34481;SDS011;20720;48.886;9.388;2022-12-10T09:23:19;35.72;;;20.90;;
34481;SDS011;20720;48.886;9.388;2022-12-10T09:25:44;34.75;;;19.27;;
34481;SDS011;20720;48.886;9.388;2022-12-10T09:28:09;39.03;;;21.95;;
34481;SDS011;20720;48.886;9.388;2022-12-10T09:30:35;35.55;;;19.92;;
34481;SDS011;20720;48.886;9.388;2022-12-10T09:33:00;34.92;;;19.63;;
34481;SDS011;20720;48.886;9.388;2022-12-10T09:35:26;36.72;;;21.05;;
34481;SDS011;20720;48.886;9.388;2022-12-10T09:37:51;37.90;;;19.67;;
34481;SDS011;20720;48.886;9.388;2022-12-10T09:40:17;36.90;;;19.80;;
34481;SDS011;20720;48.886;9.388;2022-12-10T09:50:49;35.40;;;19.80;;
34481;SDS011;20720;48.886;9.388;2022-12-10T09:53:36;30.70;;;19.10;;
34481;SDS011;20720;48.886;9.388;2022-12-10T09:56:04;32.25;;;18.00;;
34481;SDS011;20720;48.886;9.388;2022-12-10T09:58:30;28.13;;;16.10;;
34481;SDS011;20720;48.886;9.388;2022-12-10T10:00:57;29.20;;;17.25;;
34481;SDS011;20720;48.886;9.388;2022-12-10T10:03:24;28.77;;;16.75;;
34481;SDS011;20720;48.886;9.388;2022-12-10T10:05:50;29.63;;;16.15;;
34481;SDS011;20720;48.886;9.388;2022-12-10T10:08:28;30.65;;;17.02;;
34481;SDS011;20720;48.886;9.388;2022-12-10T10:10:57;29.35;;;17.17;;
34481;SDS011;20720;48.886;9.388;2022-12-10T10:14:08;26.67;;;16.40;;
34481;SDS011;20720;48.886;9.388;2022-12-10T10:21:28;28.67;;;16.30;;
34481;SDS011;20720;48.886;9.388;2022-12-10T10:24:03;28.48;;;16.88;;
34481;SDS011;20720;48.886;9.388;2022-12-10T10:26:29;25.77;;;15.10;;
34481;SDS011;20720;48.886;9.388;2022-12-10T10:28:56;26.60;;;14.85;;
34481;SDS011;20720;48.886;9.388;2022-12-10T10:31:26;26.88;;;15.65;;
34481;SDS011;20720;48.886;9.388;2022-12-10T10:33:55;24.45;;;14.43;;
34481;SDS011;20720;48.886;9.388;2022-12-10T10:36:23;25.52;;;15.27;;
34481;SDS011;20720;48.886;9.388;2022-12-10T10:38:53;24.38;;;14.48;;
34481;SDS011;20720;48.886;9.388;2022-12-10T10:41:18;25.75;;;16.52;;
34481;SDS011;20720;48.886;9.388;2022-12-10T10:43:44;26.05;;;15.15;;
34481;SDS011;20720;48.886;9.388;2022-12-10T10:46:11;25.25;;;14.98;;
34481;SDS011;20720;48.886;9.388;2022-12-10T10:48:39;25.00;;;15.18;;
34481;SDS011;20720;48.886;9.388;2022-12-10T10:51:23;24.08;;;14.50;;
34481;SDS011;20720;48.886;9.388;2022-12-10T10:53:49;25.77;;;14.88;;
34481;SDS011;20720;48.886;9.388;2022-12-10T10:56:20;27.48;;;15.98;;
34481;SDS011;20720;48.886;9.388;2022-12-10T10:59:01;26.08;;;15.60;;
34481;SDS011;20720;48.886;9.388;2022-12-10T11:01:49;25.30;;;15.07;;
34481;SDS011;20720;48.886;9.388;2022-12-10T11:04:15;24.92;;;15.38;;
34481;SDS011;20720;48.886;9.388;2022-12-10T11:06:43;27.10;;;14.57;;
34481;SDS011;20720;48.886;9.388;2022-12-10T11:09:18;25.75;;;16.08;;
34481;SDS011;20720;48.886;9.388;2022-12-10T11:12:36;23.75;;;15.18;;
34481;SDS011;20720;48.886;9.388;2022-12-10T11:14:58;24.73;;;14.98;;
34481;SDS011;20720;48.886;9.388;2022-12-10T11:17:24;25.85;;;14.98;;
34481;SDS011;20720;48.886;9.388;2022-12-10T11:25:26;24.27;;;15.00;;
34481;SDS011;20720;48.886;9.388;2022-12-10T11:27:57;24.63;;;15.38;;
34481;SDS011;20720;48.886;9.388;2022-12-10T11:30:27;28.95;;;17.00;;
34481;SDS011;20720;48.886;9.388;2022-12-10T11:35:32;26.60;;;15.95;;
34481;SDS011;20720;48.886;9.388;2022-12-10T11:41:15;26.13;;;15.45;;
34481;SDS011;20720;48.886;9.388;2022-12-10T11:49:28;32.13;;;16.98;;
34481;SDS011;20720;48.886;9.388;2022-12-10T11:57:43;29.17;;;17.80;;
34481;SDS011;20720;48.886;9.388;2022-12-10T12:05:47;24.20;;;15.68;;
34481;SDS011;20720;48.886;9.388;2022-12-10T12:08:26;26.58;;;16.05;;
34481;SDS011;20720;48.886;9.388;2022-12-10T12:14:01;26.80;;;15.73;;
34481;SDS011;20720;48.886;9.388;2022-12-10T12:16:38;24.45;;;14.57;;
34481;SDS011;20720;48.886;9.388;2022-12-10T12:19:10;23.27;;;14.75;;
34481;SDS011;20720;48.886;9.388;2022-12-10T12:21:41;25.15;;;14.63;;
34481;SDS011;20720;48.886;9.388;2022-12-10T12:24:12;25.98;;;15.07;;
34481;SDS011;20720;48.886;9.388;2022-12-10T12:26:48;24.45;;;13.82;;
34481;SDS011;20720;48.886;9.388;2022-12-10T12:29:30;22.42;;;13.52;;
34481;SDS011;20720;48.886;9.388;2022-12-10T12:32:04;22.58;;;13.43;;
34481;SDS011;20720;48.886;9.388;2022-12-10T12:34:43;23.02;;;14.07;;
34481;SDS011;20720;48.886;9.388;2022-12-10T12:37:14;21.38;;;13.40;;
34481;SDS011;20720;48.886;9.388;2022-12-10T12:40:44;24.42;;;15.48;;
34481;SDS011;20720;48.886;9.388;2022-12-10T12:42:56;23.00;;;14.23;;
34481;SDS011;20720;48.886;9.388;2022-12-10T12:48:22;21.27;;;13.65;;
34481;SDS011;20720;48.886;9.388;2022-12-10T12:51:02;20.80;;;13.65;;
34481;SDS011;20720;48.886;9.388;2022-12-10T12:53:31;27.65;;;17.90;;
34481;SDS011;20720;48.886;9.388;2022-12-10T12:56:03;20.17;;;13.52;;
34481;SDS011;20720;48.886;9.388;2022-12-10T13:01:31;22.85;;;13.00;;
34481;SDS011;20720;48.886;9.388;2022-12-10T13:04:05;23.77;;;12.98;;
34481;SDS011;20720;48.886;9.388;2022-12-10T13:06:32;23.08;;;13.50;;
34481;SDS011;20720;48.886;9.388;2022-12-10T13:11:37;19.63;;;12.15;;
34481;SDS011;20720;48.886;9.388;2022-12-10T13:14:29;19.20;;;11.77;;
34481;SDS011;20720;48.886;9.388;2022-12-10T13:17:00;18.50;;;10.95;;
34481;SDS011;20720;48.886;9.388;2022-12-10T13:19:49;17.48;;;11.10;;
34481;SDS011;20720;48.886;9.388;2022-12-10T13:25:14;19.67;;;11.85;;
34481;SDS011;20720;48.886;9.388;2022-12-10T13:27:53;19.90;;;11.88;;
34481;SDS011;20720;48.886;9.388;2022-12-10T13:30:31;20.33;;;12.18;;
34481;SDS011;20720;48.886;9.388;2022-12-10T13:33:03;21.00;;;12.65;;
34481;SDS011;20720;48.886;9.388;2022-12-10T13:35:42;24.05;;;13.13;;
34481;SDS011;20720;48.886;9.388;2022-12-10T13:38:28;20.60;;;12.30;;
34481;SDS011;20720;48.886;9.388;2022-12-10T13:40:58;19.67;;;12.45;;
34481;SDS011;20720;48.886;9.388;2022-12-10T13:43:51;19.90;;;12.25;;
34481;SDS011;20720;48.886;9.388;2022-12-10T13:46:53;19.33;;;12.02;;
34481;SDS011;20720;48.886;9.388;2022-12-10T13:49:22;21.98;;;13.00;;
34481;SDS011;20720;48.886;9.388;2022-12-10T13:52:01;19.30;;;12.25;;
34481;SDS011;20720;48.886;9.388;2022-12-10T13:57:12;19.52;;;11.73;;
34481;SDS011;20720;48.886;9.388;2022-12-10T13:59:47;19.77;;;11.60;;
34481;SDS011;20720;48.886;9.388;2022-12-10T14:02:36;20.17;;;11.73;;
34481;SDS011;20720;48.886;9.388;2022-12-10T14:07:54;18.25;;;11.30;;
34481;SDS011;20720;48.886;9.388;2022-12-10T14:10:27;20.90;;;12.43;;
34481;SDS011;20720;48.886;9.388;2022-12-10T14:12:59;20.08;;;11.30;;
34481;SDS011;20720;48.886;9.388;2022-12-10T14:15:28;21.27;;;12.05;;
34481;SDS011;20720;48.886;9.388;2022-12-10T14:17:59;21.30;;;12.57;;
34481;SDS011;20720;48.886;9.388;2022-12-10T14:20:27;18.40;;;11.48;;
34481;SDS011;20720;48.886;9.388;2022-12-10T14:22:56;21.95;;;12.75;;
34481;SDS011;20720;48.886;9.388;2022-12-10T14:25:41;19.45;;;11.80;;
34481;SDS011;20720;48.886;9.388;2022-12-10T14:28:11;20.95;;;12.02;;
34481;SDS011;20720;48.886;9.388;2022-12-10T14:30:38;24.60;;;13.52;;
34481;SDS011;20720;48.886;9.388;2022-12-10T14:33:08;20.90;;;12.30;;
34481;SDS011;20720;48.886;9.388;2022-12-10T14:35:38;22.40;;;12.75;;
34481;SDS011;20720;48.886;9.388;2022-12-10T14:38:03;24.65;;;13.73;;
34481;SDS011;20720;48.886;9.388;2022-12-10T14:40:30;20.88;;;13.00;;
34481;SDS011;20720;48.886;9.388;2022-12-10T14:43:04;17.75;;;9.63;;
34481;SDS011;20720;48.886;9.388;2022-12-10T14:45:36;22.02;;;13.02;;
34481;SDS011;20720;48.886;9.388;2022-12-10T14:48:10;22.45;;;13.18;;
34481;SDS011;20720;48.886;9.388;2022-12-10T14:50:41;25.23;;;14.40;;
34481;SDS011;20720;48.886;9.388;2022-12-10T14:53:22;26.38;;;15.43;;
34481;SDS011;20720;48.886;9.388;2022-12-10T14:55:50;26.23;;;14.40;;
34481;SDS011;20720;48.886;9.388;2022-12-10T14:58:24;30.88;;;17.45;;
34481;SDS011;20720;48.886;9.388;2022-12-10T15:00:55;43.25;;;20.77;;
34481;SDS011;20720;48.886;9.388;2022-12-10T15:03:26;35.03;;;18.42;;
34481;SDS011;20720;48.886;9.388;2022-12-10T15:06:05;36.35;;;20.25;;
34481;SDS011;20720;48.886;9.388;2022-12-10T15:08:33;37.53;;;18.90;;
34481;SDS011;20720;48.886;9.388;2022-12-10T15:10:59;37.72;;;19.20;;
34481;SDS011;20720;48.886;9.388;2022-12-10T15:13:39;35.10;;;18.45;;
34481;SDS011;20720;48.886;9.388;2022-12-10T15:16:15;31.92;;;17.48;;
34481;SDS011;20720;48.886;9.388;2022-12-10T15:18:44;26.80;;;16.02;;
34481;SDS011;20720;48.886;9.388;2022-12-10T15:21:19;28.00;;;15.98;;
34481;SDS011;20720;48.886;9.388;2022-12-10T15:23:47;29.23;;;17.17;;
34481;SDS011;20720;48.886;9.388;2022-12-10T15:26:23;25.30;;;15.25;;
34481;SDS011;20720;48.886;9.388;2022-12-10T15:29:14;26.95;;;15.05;;
34481;SDS011;20720;48.886;9.388;2022-12-10T15:31:48;25.65;;;15.15;;
34481;SDS011;20720;48.886;9.388;2022-12-10T15:34:14;26.92;;;16.08;;
34481;SDS011;20720;48.886;9.388;2022-12-10T15:36:41;24.70;;;13.82;;
34481;SDS011;20720;48.886;9.388;2022-12-10T15:41:42;33.55;;;18.55;;
34481;SDS011;20720;48.886;9.388;2022-12-10T15:44:30;32.25;;;17.50;;
34481;SDS011;20720;48.886;9.388;2022-12-10T15:49:34;30.17;;;15.93;;
34481;SDS011;20720;48.886;9.388;2022-12-10T15:51:59;28.70;;;14.85;;
34481;SDS011;20720;48.886;9.388;2022-12-10T15:54:27;25.58;;;13.63;;
34481;SDS011;20720;48.886;9.388;2022-12-10T15:56:59;26.00;;;14.63;;
34481;SDS011;20720;48.886;9.388;2022-12-10T15:59:29;24.17;;;14.55;;
34481;SDS011;20720;48.886;9.388;2022-12-10T16:01:54;23.02;;;13.68;;
34481;SDS011;20720;48.886;9.388;2022-12-10T16:04:20;23.75;;;13.88;;
34481;SDS011;20720;48.886;9.388;2022-12-10T16:06:45;29.95;;;16.35;;
34481;SDS011;20720;48.886;9.388;2022-12-10T16:09:10;33.92;;;17.58;;
34481;SDS011;20720;48.886;9.388;2022-12-10T16:11:36;38.97;;;18.23;;
34481;SDS011;20720;48.886;9.388;2022-12-10T16:14:01;36.28;;;18.83;;
34481;SDS011;20720;48.886;9.388;2022-12-10T16:16:28;34.42;;;17.95;;